Time,TemperatureF,DewpointF,PressureIn,WindDirection,WindDirectionDegrees,WindSpeedMPH,WindSpeedGustMPH,Humidity,HourlyPrecipIn,Conditions,Clouds,dailyrainin,SoftwareType,DateUTC
2013-01-15 03:38:00,14.8,10.6,30.44,North,355,0.0,0.0,83,0.00,CLR,,0.00,WeatherDisplay:10.37,2013-01-15 09:38:00,
2013-01-15 03:43:00,14.4,10.2,30.44,North,355,0.0,0.0,83,0.00,CLR,,0.00,WeatherDisplay:10.37,2013-01-15 09:43:00,
2013-01-15 03:48:00,14.4,10.2,30.43,North,355,0.0,0.0,83,0.00,CLR,,0.00,WeatherDisplay:10.37,2013-01-15 09:48:00,
2013-01-15 03:53:00,14.4,10.2,30.43,North,355,0.0,0.0,83,0.00,CLR,,0.00,WeatherDisplay:10.37,2013-01-15 09:53:00,
2013-01-15 03:58:00,14.6,10.4,30.43,North,355,0.0,0.0,83,0.00,CLR,,0.00,WeatherDisplay:10.37,2013-01-15 09:58:00,
2013-01-15 04:03:00,14.8,10.6,30.43,North,355,0.0,0.0,83,0.00,CLR,,0.00,WeatherDisplay:10.37,2013-01-15 10:03:00,
2013-01-15 04:08:00,14.8,10.6,30.43,North,355,0.0,0.0,83,0.00,CLR,,0.00,WeatherDisplay:10.37,2013-01-15 10:08:00,
2013-01-15 04:13:00,14.8,10.6,30.43,North,355,0.0,0.0,83,0.00,CLR,,0.00,WeatherDisplay:10.37,2013-01-15 10:13:00,
2013-01-15 04:18:00,14.8,10.6,30.42,North,355,0.0,0.0,83,0.00,CLR,,0.00,WeatherDisplay:10.37,2013-01-15 10:18:00,
2013-01-15 04:23:00,14.6,10.4,30.42,North,355,0.0,0.0,83,0.00,CLR,,0.00,WeatherDisplay:10.37,2013-01-15 10:23:00,
2013-01-15 04:28:00,14.4,10.2,30.42,North,355,0.0,0.0,83,0.00,CLR,,0.00,WeatherDisplay:10.37,2013-01-15 10:28:00,
2013-01-15 04:33:00,14.3,10.1,30.42,North,355,0.0,0.0,83,0.00,CLR,,0.00,WeatherDisplay:10.37,2013-01-15 10:33:00,
2013-01-15 04:38:00,14.3,10.1,30.42,North,355,0.0,0.0,83,0.00,CLR,,0.00,WeatherDisplay:10.37,2013-01-15 10:38:00,
2013-01-15 04:43:00,14.6,10.4,30.42,North,355,0.0,0.0,83,0.00,CLR,,0.00,WeatherDisplay:10.37,2013-01-15 10:43:00,
2013-01-15 04:48:00,14.6,10.1,30.41,North,355,0.0,0.0,82,0.00,CLR,,0.00,WeatherDisplay:10.37,2013-01-15 10:48:00,
2013-01-15 04:53:00,14.4,9.9,30.41,North,355,0.0,0.0,82,0.00,CLR,,0.00,WeatherDisplay:10.37,2013-01-15 10:53:00,
2013-01-15 04:58:00,14.3,9.8,30.41,North,355,0.0,0.0,82,0.00,CLR,,0.00,WeatherDisplay:10.37,2013-01-15 10:58:00,
2013-01-15 05:03:00,14.3,9.8,30.41,North,355,0.0,0.0,82,0.00,CLR,,0.00,WeatherDisplay:10.37,2013-01-15 11:03:00,
2013-01-15 05:08:00,14.3,9.8,30.41,North,355,0.0,0.0,82,0.00,CLR,,0.00,WeatherDisplay:10.37,2013-01-15 11:08:00,
2013-01-15 05:13:00,14.4,9.9,30.41,North,355,0.0,0.0,82,0.00,CLR,,0.00,WeatherDisplay:10.37,2013-01-15 11:13:00,
2013-01-15 05:18:00,14.3,9.5,30.41,North,355,0.0,0.0,81,0.00,CLR,,0.00,WeatherDisplay:10.37,2013-01-15 11:18:00,
2013-01-15 05:23:00,14.0,9.2,30.41,North,355,0.0,0.0,81,0.00,CLR,,0.00,WeatherDisplay:10.37,2013-01-15 11:23:00,
2013-01-15 05:28:00,13.8,9.0,30.41,North,355,0.0,0.0,81,0.00,CLR,,0.00,WeatherDisplay:10.37,2013-01-15 11:28:00,
2013-01-15 05:33:00,13.6,8.9,30.41,North,355,0.0,0.0,81,0.00,CLR,,0.00,WeatherDisplay:10.37,2013-01-15 11:33:00,
2013-01-15 05:38:00,13.5,8.8,30.41,North,355,0.0,0.0,81,0.00,CLR,,0.00,WeatherDisplay:10.37,2013-01-15 11:38:00,
2013-01-15 05:43:00,13.3,8.6,30.41,North,355,0.0,0.0,81,0.00,CLR,,0.00,WeatherDisplay:10.37,2013-01-15 11:43:00,
2013-01-15 05:48:00,13.1,8.4,30.41,North,355,0.0,0.0,81,0.00,CLR,,0.00,WeatherDisplay:10.37,2013-01-15 11:48:00,
2013-01-15 05:53:00,12.9,8.2,30.41,North,355,0.0,0.0,81,0.00,CLR,,0.00,WeatherDisplay:10.37,2013-01-15 11:53:00,
2013-01-15 05:58:00,13.3,8.8,30.41,North,355,0.0,0.0,82,0.00,CLR,,0.00,WeatherDisplay:10.37,2013-01-15 11:58:00,
2013-01-15 06:03:00,13.6,9.1,30.41,North,355,0.0,0.0,82,0.00,CLR,,0.00,WeatherDisplay:10.37,2013-01-15 12:03:00,
2013-01-15 06:08:00,14.1,9.6,30.41,North,355,0.0,0.0,82,0.00,CLR,,0.00,WeatherDisplay:10.37,2013-01-15 12:08:00,
2013-01-15 06:13:00,14.1,9.3,30.41,North,355,0.0,0.0,81,0.00,CLR,,0.00,WeatherDisplay:10.37,2013-01-15 12:13:00,
2013-01-15 06:18:00,14.1,9.3,30.41,North,355,0.0,0.0,81,0.00,CLR,,0.00,WeatherDisplay:10.37,2013-01-15 12:18:00,
2013-01-15 06:23:00,14.0,9.0,30.41,North,355,0.0,0.0,80,0.00,CLR,,0.00,WeatherDisplay:10.37,2013-01-15 12:23:00,
2013-01-15 06:28:00,14.1,9.1,30.41,North,355,0.0,0.0,80,0.00,CLR,,0.00,WeatherDisplay:10.37,2013-01-15 12:28:00,
2013-01-15 06:33:00,14.1,9.1,30.41,North,355,0.0,0.0,80,0.00,CLR,,0.00,WeatherDisplay:10.37,2013-01-15 12:33:00,
2013-01-15 06:38:00,14.0,9.0,30.41,North,355,0.0,0.0,80,0.00,CLR,,0.00,WeatherDisplay:10.37,2013-01-15 12:38:00,
2013-01-15 06:43:00,14.0,9.0,30.41,North,355,0.0,0.0,80,0.00,CLR,,0.00,WeatherDisplay:10.37,2013-01-15 12:43:00,
2013-01-15 06:48:00,13.8,8.8,30.42,North,355,0.0,0.0,80,0.00,CLR,,0.00,WeatherDisplay:10.37,2013-01-15 12:48:00,
2013-01-15 06:53:00,13.6,8.6,30.42,North,355,0.0,0.0,80,0.00,CLR,,0.00,WeatherDisplay:10.37,2013-01-15 12:53:00,
2013-01-15 06:58:00,13.8,8.8,30.42,North,355,0.0,0.0,80,0.00,CLR,,0.00,WeatherDisplay:10.37,2013-01-15 12:58:00,
2013-01-15 07:03:00,14.0,9.0,30.41,North,355,0.0,0.0,80,0.00,CLR,,0.00,WeatherDisplay:10.37,2013-01-15 13:03:00,
2013-01-15 07:08:00,14.0,9.0,30.41,North,355,0.0,0.0,80,0.00,CLR,,0.00,WeatherDisplay:10.37,2013-01-15 13:08:00,
2013-01-15 07:13:00,14.0,9.0,30.41,North,355,0.0,0.0,80,0.00,CLR,,0.00,WeatherDisplay:10.37,2013-01-15 13:13:00,
2013-01-15 07:18:00,14.0,9.0,30.42,North,355,0.0,0.0,80,0.00,CLR,,0.00,WeatherDisplay:10.37,2013-01-15 13:18:00,
2013-01-15 07:23:00,14.3,9.3,30.42,North,355,0.0,0.0,80,0.00,CLR,,0.00,WeatherDisplay:10.37,2013-01-15 13:23:00,
2013-01-15 07:28:00,14.4,9.6,30.42,North,355,0.0,0.0,81,0.00,CLR,,0.00,WeatherDisplay:10.37,2013-01-15 13:28:00,
2013-01-15 07:33:00,14.4,9.6,30.43,North,355,0.0,0.0,81,0.00,CLR,,0.00,WeatherDisplay:10.37,2013-01-15 13:33:00,
2013-01-15 07:38:00,14.1,9.3,30.43,North,355,0.0,0.0,81,0.00,CLR,,0.00,WeatherDisplay:10.37,2013-01-15 13:38:00,
2013-01-15 07:43:00,14.3,9.5,30.43,North,355,0.0,0.0,81,0.00,CLR,,0.00,WeatherDisplay:10.37,2013-01-15 13:43:00,
2013-01-15 07:48:00,14.4,9.6,30.43,North,355,0.0,0.0,81,0.00,CLR,,0.00,WeatherDisplay:10.37,2013-01-15 13:48:00,
2013-01-15 07:53:00,14.8,10.3,30.43,North,355,0.0,0.0,82,0.00,CLR,,0.00,WeatherDisplay:10.37,2013-01-15 13:53:00,
2013-01-15 07:58:00,14.9,10.1,30.43,North,355,0.0,0.0,81,0.00,CLR,,0.00,WeatherDisplay:10.37,2013-01-15 13:58:00,
2013-01-15 08:03:00,14.9,10.4,30.43,North,355,0.0,0.0,82,0.00,CLR,,0.00,WeatherDisplay:10.37,2013-01-15 14:03:00,
2013-01-15 08:08:00,15.2,10.7,30.43,North,355,0.0,0.0,82,0.00,CLR,,0.00,WeatherDisplay:10.37,2013-01-15 14:08:00,
2013-01-15 08:13:00,15.6,11.1,30.43,North,355,0.0,0.0,82,0.00,CLR,,0.00,WeatherDisplay:10.37,2013-01-15 14:13:00,
2013-01-15 08:18:00,15.9,11.4,30.43,North,355,0.0,0.0,82,0.00,CLR,,0.00,WeatherDisplay:10.37,2013-01-15 14:18:00,
2013-01-15 08:23:00,16.4,11.9,30.43,North,355,0.0,0.0,82,0.00,CLR,,0.00,WeatherDisplay:10.37,2013-01-15 14:23:00,
2013-01-15 08:28:00,16.7,12.2,30.43,North,355,0.0,0.0,82,0.00,CLR,,0.00,WeatherDisplay:10.37,2013-01-15 14:28:00,
2013-01-15 08:33:00,17.2,12.9,30.45,North,355,0.0,0.0,83,0.00,CLR,,0.00,WeatherDisplay:10.37,2013-01-15 14:33:00,
2013-01-15 08:38:00,17.8,13.5,30.45,North,356,0.2,0.0,83,0.00,CLR,,0.00,WeatherDisplay:10.37,2013-01-15 14:38:00,
2013-01-15 08:43:00,18.6,14.0,30.45,North,358,0.0,0.0,82,0.00,CLR,,0.00,WeatherDisplay:10.37,2013-01-15 14:43:00,
2013-01-15 08:48:00,18.8,13.9,30.45,SE,125,0.0,0.0,81,0.00,CLR,,0.00,WeatherDisplay:10.37,2013-01-15 14:48:00,
2013-01-15 08:53:00,19.1,14.2,30.45,SE,125,0.0,0.0,81,0.00,CLR,,0.00,WeatherDisplay:10.37,2013-01-15 14:53:00,
2013-01-15 08:58:00,19.5,14.3,30.45,SE,125,0.0,0.0,80,0.00,CLR,,0.00,WeatherDisplay:10.37,2013-01-15 14:58:00,
2013-01-15 09:03:00,19.9,14.1,30.45,SE,137,0.6,1.0,78,0.00,CLR,,0.00,WeatherDisplay:10.37,2013-01-15 15:03:00,
2013-01-15 09:08:00,20.5,14.1,30.45,SE,140,0.1,2.0,76,0.00,CLR,,0.00,WeatherDisplay:10.37,2013-01-15 15:08:00,
2013-01-15 09:13:00,20.6,13.6,30.45,SE,141,0.0,0.0,74,0.00,CLR,,0.00,WeatherDisplay:10.37,2013-01-15 15:13:00,
2013-01-15 09:18:00,21.4,14.1,30.44,SE,141,0.2,1.0,73,0.00,CLR,,0.00,WeatherDisplay:10.37,2013-01-15 15:18:00,
2013-01-15 09:23:00,21.4,13.8,30.44,SE,142,0.4,0.0,72,0.00,CLR,,0.00,WeatherDisplay:10.37,2013-01-15 15:23:00,
2013-01-15 09:28:00,21.6,14.0,30.44,SE,142,0.2,0.0,72,0.00,CLR,,0.00,WeatherDisplay:10.37,2013-01-15 15:28:00,
2013-01-15 09:33:00,21.6,13.3,30.44,SE,142,0.4,1.0,70,0.00,CLR,,0.00,WeatherDisplay:10.37,2013-01-15 15:33:00,
2013-01-15 09:38:00,22.1,13.8,30.44,SE,142,0.0,0.0,70,0.00,CLR,,0.00,WeatherDisplay:10.37,2013-01-15 15:38:00,
2013-01-15 09:43:00,22.5,14.2,30.44,SE,140,0.0,0.0,70,0.00,CLR,,0.00,WeatherDisplay:10.37,2013-01-15 15:43:00,
2013-01-15 09:48:00,23.5,15.1,30.44,SE,140,0.1,1.0,70,0.00,CLR,,0.00,WeatherDisplay:10.37,2013-01-15 15:48:00,
2013-01-15 09:53:00,23.9,15.2,30.44,SE,141,0.5,2.3,69,0.00,CLR,,0.00,WeatherDisplay:10.37,2013-01-15 15:53:00,
2013-01-15 09:58:00,24.1,15.1,30.44,SE,143,0.0,1.2,68,0.00,CLR,,0.00,WeatherDisplay:10.37,2013-01-15 15:58:00,
2013-01-15 10:03:00,24.2,14.8,30.42,SE,143,0.0,0.0,67,0.00,CLR,,0.00,WeatherDisplay:10.37,2013-01-15 16:03:00,
2013-01-15 10:08:00,24.4,14.7,30.42,SE,143,0.4,2.3,66,0.00,CLR,,0.00,WeatherDisplay:10.37,2013-01-15 16:08:00,
2013-01-15 10:13:00,24.5,14.8,30.42,SE,143,0.2,3.5,66,0.00,CLR,,0.00,WeatherDisplay:10.37,2013-01-15 16:13:00,
2013-01-15 10:18:00,25.3,15.5,30.40,SE,146,1.1,3.5,66,0.00,CLR,,0.00,WeatherDisplay:10.37,2013-01-15 16:18:00,
2013-01-15 10:23:00,25.0,14.2,30.40,SSE,147,0.6,2.0,63,0.00,CLR,,0.00,WeatherDisplay:10.37,2013-01-15 16:23:00,
2013-01-15 10:28:00,25.4,14.2,30.40,ESE,109,1.4,3.5,62,0.00,CLR,,0.00,WeatherDisplay:10.37,2013-01-15 16:28:00,
2013-01-15 10:33:00,25.3,14.1,30.39,ESE,109,1.3,2.3,62,0.01,RA,,0.01,WeatherDisplay:10.37,2013-01-15 16:33:00,
2013-01-15 10:38:00,25.3,13.3,30.39,ESE,111,2.0,3.5,60,0.01,RA,,0.01,WeatherDisplay:10.37,2013-01-15 16:38:00,
2013-01-15 10:43:00,25.6,14.4,30.39,ESE,109,1.2,2.3,62,0.01,,,0.01,WeatherDisplay:10.37,2013-01-15 16:43:00,
2013-01-15 10:48:00,26.0,14.8,30.39,ESE,112,0.0,0.0,62,0.01,CLR,,0.01,WeatherDisplay:10.37,2013-01-15 16:48:00,
2013-01-15 10:53:00,27.5,15.8,30.39,SSW,193,0.7,2.3,61,0.01,CLR,,0.01,WeatherDisplay:10.37,2013-01-15 16:53:00,
2013-01-15 10:58:00,28.2,15.3,30.39,SSW,200,0.0,0.0,58,0.01,CLR,,0.01,WeatherDisplay:10.37,2013-01-15 16:58:00,
2013-01-15 11:03:00,28.7,15.4,30.39,SSW,194,0.8,2.3,57,0.01,CLR,,0.01,WeatherDisplay:10.37,2013-01-15 17:03:00,
2013-01-15 11:08:00,28.8,15.1,30.39,South,191,1.7,3.5,56,0.01,CLR,,0.01,WeatherDisplay:10.37,2013-01-15 17:08:00,
2013-01-15 11:13:00,29.0,15.2,30.39,SSW,201,0.4,2.3,56,0.01,CLR,,0.01,WeatherDisplay:10.37,2013-01-15 17:13:00,
2013-01-15 11:18:00,28.1,14.4,30.38,SSW,194,1.0,2.3,56,0.01,CLR,,0.01,WeatherDisplay:10.37,2013-01-15 17:18:00,
2013-01-15 11:23:00,27.9,13.8,30.38,SSW,205,1.6,3.5,55,0.01,CLR,,0.01,WeatherDisplay:10.37,2013-01-15 17:23:00,
2013-01-15 11:28:00,27.9,13.8,30.38,SSW,199,2.5,3.5,55,0.01,CLR,,0.01,WeatherDisplay:10.37,2013-01-15 17:28:00,
2013-01-15 11:33:00,27.3,12.8,30.37,South,175,1.0,2.3,54,0.00,CLR,,0.01,WeatherDisplay:10.37,2013-01-15 17:33:00,
2013-01-15 11:38:00,27.5,14.2,30.37,SSE,168,1.6,2.3,57,0.00,CLR,,0.01,WeatherDisplay:10.37,2013-01-15 17:38:00,
2013-01-15 11:43:00,27.6,13.5,30.37,South,174,1.7,3.5,55,0.00,CLR,,0.01,WeatherDisplay:10.37,2013-01-15 17:43:00,
2013-01-15 11:48:00,27.8,13.7,30.37,South,181,0.9,2.3,55,0.00,CLR,,0.01,WeatherDisplay:10.37,2013-01-15 17:48:00,
2013-01-15 11:53:00,28.1,13.6,30.37,South,181,0.7,1.2,54,0.00,CLR,,0.01,WeatherDisplay:10.37,2013-01-15 17:53:00,
2013-01-15 11:58:00,27.5,13.0,30.37,South,180,1.3,2.3,54,0.00,CLR,,0.01,WeatherDisplay:10.37,2013-01-15 17:58:00,
2013-01-15 12:03:00,27.3,12.8,30.35,South,178,1.8,3.5,54,0.00,CLR,,0.01,WeatherDisplay:10.37,2013-01-15 18:03:00,
2013-01-15 12:08:00,27.0,12.5,30.35,South,178,0.2,1.2,54,0.00,CLR,,0.01,WeatherDisplay:10.37,2013-01-15 18:08:00,
2013-01-15 12:13:00,27.3,13.2,30.35,South,178,0.0,0.0,55,0.00,CLR,,0.01,WeatherDisplay:10.37,2013-01-15 18:13:00,
2013-01-15 12:18:00,28.2,14.1,30.34,South,184,1.2,2.3,55,0.00,CLR,,0.01,WeatherDisplay:10.37,2013-01-15 18:18:00,
2013-01-15 12:23:00,28.8,14.2,30.34,SSW,201,0.5,1.2,54,0.00,CLR,,0.01,WeatherDisplay:10.37,2013-01-15 18:23:00,
2013-01-15 12:28:00,29.5,14.9,30.34,SSW,208,0.5,2.3,54,0.00,CLR,,0.01,WeatherDisplay:10.37,2013-01-15 18:28:00,
2013-01-15 12:33:00,29.3,14.3,30.34,SSW,208,0.1,1.2,53,0.00,CLR,,0.01,WeatherDisplay:10.37,2013-01-15 18:33:00,
2013-01-15 12:38:00,29.4,14.8,30.34,SSW,208,0.0,0.0,54,0.00,CLR,,0.01,WeatherDisplay:10.37,2013-01-15 18:38:00,
2013-01-15 12:43:00,29.1,14.1,30.34,South,186,1.4,2.3,53,0.00,CLR,,0.01,WeatherDisplay:10.37,2013-01-15 18:43:00,
2013-01-15 12:48:00,28.8,13.8,30.33,South,186,0.0,0.0,53,0.00,CLR,,0.01,WeatherDisplay:10.37,2013-01-15 18:48:00,
2013-01-15 12:53:00,29.1,14.5,30.33,South,186,0.9,2.3,54,0.00,CLR,,0.01,WeatherDisplay:10.37,2013-01-15 18:53:00,
2013-01-15 12:58:00,29.7,14.6,30.33,South,171,0.9,1.2,53,0.00,CLR,,0.01,WeatherDisplay:10.37,2013-01-15 18:58:00,
2013-01-15 13:03:00,29.4,13.9,30.33,South,171,0.0,1.2,52,0.00,CLR,,0.01,WeatherDisplay:10.37,2013-01-15 19:03:00,
2013-01-15 13:08:00,29.0,13.6,30.33,South,171,0.5,2.3,52,0.00,CLR,,0.01,WeatherDisplay:10.37,2013-01-15 19:08:00,
2013-01-15 13:14:00,29.1,14.5,30.33,South,184,1.1,2.3,54,0.00,CLR,,0.01,WeatherDisplay:10.37,2013-01-15 19:14:00,
2013-01-15 13:19:00,29.7,15.1,30.31,SSE,168,1.3,3.5,54,0.00,CLR,,0.01,WeatherDisplay:10.37,2013-01-15 19:19:00,
2013-01-15 13:24:00,29.5,14.0,30.31,SSW,201,1.1,3.5,52,0.00,CLR,,0.01,WeatherDisplay:10.37,2013-01-15 19:24:00,
2013-01-15 13:29:00,29.1,14.1,30.31,SSW,203,1.5,3.5,53,0.00,CLR,,0.01,WeatherDisplay:10.37,2013-01-15 19:29:00,
2013-01-15 13:34:00,28.8,14.2,30.31,SSW,204,0.0,0.0,54,0.00,CLR,,0.01,WeatherDisplay:10.37,2013-01-15 19:34:00,
2013-01-15 13:39:00,29.1,14.9,30.31,SSW,204,0.0,0.0,55,0.00,CLR,,0.01,WeatherDisplay:10.37,2013-01-15 19:39:00,
2013-01-15 13:44:00,29.4,15.2,30.31,SSW,206,0.0,0.0,55,0.00,CLR,,0.01,WeatherDisplay:10.37,2013-01-15 19:44:00,
2013-01-15 13:49:00,29.3,15.1,30.31,SSW,206,0.0,0.0,55,0.00,CLR,,0.01,WeatherDisplay:10.37,2013-01-15 19:49:00,
2013-01-15 13:54:00,29.3,15.1,30.31,SSW,206,0.7,2.3,55,0.00,CLR,,0.01,WeatherDisplay:10.37,2013-01-15 19:54:00,
2013-01-15 13:59:00,29.7,15.5,30.31,SSW,208,1.2,2.3,55,0.00,CLR,,0.01,WeatherDisplay:10.37,2013-01-15 19:59:00,
2013-01-15 14:04:00,30.1,16.3,30.31,SSW,201,0.2,1.0,56,0.00,CLR,,0.01,WeatherDisplay:10.37,2013-01-15 20:04:00,
2013-01-15 14:09:00,30.3,16.0,30.31,SSW,201,0.8,2.3,55,0.00,CLR,,0.01,WeatherDisplay:10.37,2013-01-15 20:09:00,
2013-01-15 14:14:00,29.7,15.1,30.31,SSW,201,0.1,1.2,54,0.00,CLR,,0.01,WeatherDisplay:10.37,2013-01-15 20:14:00,
2013-01-15 14:19:00,29.1,14.9,30.30,SSW,201,0.0,0.0,55,0.00,CLR,,0.01,WeatherDisplay:10.37,2013-01-15 20:19:00,
2013-01-15 14:24:00,29.1,15.3,30.30,SSW,201,0.0,0.0,56,0.00,CLR,,0.01,WeatherDisplay:10.37,2013-01-15 20:24:00,
2013-01-15 14:29:00,29.7,15.9,30.30,SSW,201,0.1,0.0,56,0.00,CLR,,0.01,WeatherDisplay:10.37,2013-01-15 20:29:00,
2013-01-15 14:34:00,30.1,16.7,30.30,SSW,201,0.0,0.0,57,0.00,CLR,,0.01,WeatherDisplay:10.37,2013-01-15 20:34:00,
2013-01-15 14:39:00,30.4,17.0,30.30,SSW,203,0.0,0.0,57,0.00,CLR,,0.01,WeatherDisplay:10.37,2013-01-15 20:39:00,
2013-01-15 14:44:00,30.4,15.7,30.30,WSW,240,0.3,2.3,54,0.00,CLR,,0.01,WeatherDisplay:10.37,2013-01-15 20:44:00,
2013-01-15 14:49:00,30.4,15.7,30.29,South,190,1.1,2.3,54,0.00,CLR,,0.01,WeatherDisplay:10.37,2013-01-15 20:49:00,
2013-01-15 14:54:00,30.1,15.4,30.29,South,190,0.0,0.0,54,0.00,CLR,,0.01,WeatherDisplay:10.37,2013-01-15 20:54:00,
2013-01-15 14:59:00,30.0,15.3,30.29,South,190,0.0,1.2,54,0.00,CLR,,0.01,WeatherDisplay:10.37,2013-01-15 20:59:00,
2013-01-15 15:04:00,30.3,16.0,30.29,South,190,0.0,0.0,55,0.00,CLR,,0.01,WeatherDisplay:10.37,2013-01-15 21:04:00,
2013-01-15 15:09:00,30.6,16.3,30.29,SSW,192,0.5,1.2,55,0.00,CLR,,0.01,WeatherDisplay:10.37,2013-01-15 21:09:00,
2013-01-15 15:14:00,30.9,16.6,30.29,SW,226,1.0,0.0,55,0.00,CLR,,0.01,WeatherDisplay:10.37,2013-01-15 21:14:00,
2013-01-15 15:19:00,31.2,15.6,30.30,WSW,237,0.5,1.2,52,0.00,CLR,,0.01,WeatherDisplay:10.37,2013-01-15 21:19:00,
2013-01-15 15:24:00,31.5,15.9,30.30,WSW,242,0.7,2.3,52,0.00,CLR,,0.01,WeatherDisplay:10.37,2013-01-15 21:24:00,
2013-01-15 15:29:00,31.5,15.4,30.30,SW,214,0.2,1.2,51,0.00,CLR,,0.01,WeatherDisplay:10.37,2013-01-15 21:29:00,
2013-01-15 15:34:00,31.2,13.3,30.30,SW,229,0.7,9.2,47,0.00,CLR,,0.01,WeatherDisplay:10.37,2013-01-15 21:34:00,
2013-01-15 15:39:00,30.6,12.7,30.30,SW,222,0.0,0.0,47,0.00,CLR,,0.01,WeatherDisplay:10.37,2013-01-15 21:39:00,
2013-01-15 15:44:00,30.1,11.8,30.30,SW,233,0.8,2.3,46,0.00,CLR,,0.01,WeatherDisplay:10.37,2013-01-15 21:44:00,
2013-01-15 15:49:00,30.0,11.2,30.29,SSW,207,0.6,3.5,45,0.00,CLR,,0.01,WeatherDisplay:10.37,2013-01-15 21:49:00,
2013-01-15 15:54:00,29.8,11.0,30.29,WSW,244,0.0,3.5,45,0.00,CLR,,0.01,WeatherDisplay:10.37,2013-01-15 21:54:00,
2013-01-15 15:59:00,29.8,11.5,30.29,SW,223,2.6,4.6,46,0.00,CLR,,0.01,WeatherDisplay:10.37,2013-01-15 21:59:00,
2013-01-15 16:04:00,29.8,12.9,30.29,WSW,244,4.7,5.8,49,0.00,CLR,,0.01,WeatherDisplay:10.37,2013-01-15 22:04:00,
2013-01-15 16:09:00,29.8,12.5,30.29,WSW,246,4.1,5.0,48,0.00,CLR,,0.01,WeatherDisplay:10.37,2013-01-15 22:09:00,
2013-01-15 16:14:00,29.7,12.4,30.29,SW,218,0.0,0.0,48,0.00,CLR,,0.01,WeatherDisplay:10.37,2013-01-15 22:14:00,
2013-01-15 16:19:00,29.7,12.8,30.29,SW,223,0.7,3.5,49,0.00,CLR,,0.01,WeatherDisplay:10.37,2013-01-15 22:19:00,
2013-01-15 16:24:00,29.5,13.1,30.29,SW,225,2.5,3.5,50,0.00,CLR,,0.01,WeatherDisplay:10.37,2013-01-15 22:24:00,
2013-01-15 16:29:00,29.3,13.4,30.29,SW,216,0.0,1.2,51,0.00,CLR,,0.01,WeatherDisplay:10.37,2013-01-15 22:29:00,
2013-01-15 16:34:00,29.1,13.6,30.30,SW,236,4.0,5.8,52,0.00,CLR,,0.01,WeatherDisplay:10.37,2013-01-15 22:34:00,
2013-01-15 16:39:00,29.0,13.6,30.30,WSW,237,3.8,5.8,52,0.00,CLR,,0.01,WeatherDisplay:10.37,2013-01-15 22:39:00,
2013-01-15 16:44:00,28.8,14.2,30.30,SW,236,0.0,0.0,54,0.00,CLR,,0.01,WeatherDisplay:10.37,2013-01-15 22:44:00,
2013-01-15 16:49:00,28.7,14.6,30.29,SW,236,0.0,0.0,55,0.00,CLR,,0.01,WeatherDisplay:10.37,2013-01-15 22:49:00,
2013-01-15 16:54:00,28.5,14.8,30.29,SW,235,0.0,0.0,56,0.00,CLR,,0.01,WeatherDisplay:10.37,2013-01-15 22:54:00,
2013-01-15 16:59:00,28.5,15.2,30.29,WSW,238,0.1,3.5,57,0.00,CLR,,0.01,WeatherDisplay:10.37,2013-01-15 22:59:00,
2013-01-15 17:04:00,28.4,15.5,30.29,WSW,239,0.0,0.0,58,0.00,CLR,,0.01,WeatherDisplay:10.37,2013-01-15 23:04:00,
2013-01-15 17:09:00,28.4,15.9,30.29,WSW,239,0.3,1.2,59,0.00,CLR,,0.01,WeatherDisplay:10.37,2013-01-15 23:09:00,
2013-01-15 17:14:00,28.2,15.7,30.29,WSW,238,0.0,0.0,59,0.00,CLR,,0.01,WeatherDisplay:10.37,2013-01-15 23:14:00,
2013-01-15 17:19:00,27.9,15.8,30.29,WSW,239,0.0,0.0,60,0.00,CLR,,0.01,WeatherDisplay:10.37,2013-01-15 23:19:00,
2013-01-15 17:24:00,27.9,15.8,30.29,WSW,238,0.0,0.0,60,0.00,CLR,,0.01,WeatherDisplay:10.37,2013-01-15 23:24:00,
2013-01-15 17:29:00,27.9,16.2,30.29,WSW,238,0.0,0.0,61,0.00,CLR,,0.01,WeatherDisplay:10.37,2013-01-15 23:29:00,
2013-01-15 17:34:00,27.9,16.2,30.28,WSW,238,0.0,0.0,61,0.00,CLR,,0.01,WeatherDisplay:10.37,2013-01-15 23:34:00,
2013-01-15 17:39:00,27.8,16.5,30.28,WSW,238,0.0,0.0,62,0.00,CLR,,0.01,WeatherDisplay:10.37,2013-01-15 23:39:00,
2013-01-15 17:44:00,27.8,16.8,30.28,WSW,238,0.0,0.0,63,0.00,CLR,,0.01,WeatherDisplay:10.37,2013-01-15 23:44:00,
2013-01-15 17:49:00,27.8,16.8,30.28,WSW,239,0.0,0.0,63,0.00,CLR,,0.01,WeatherDisplay:10.37,2013-01-15 23:49:00,
2013-01-15 17:54:00,27.6,16.6,30.28,WSW,239,0.0,0.0,63,0.00,CLR,,0.01,WeatherDisplay:10.37,2013-01-15 23:54:00,
2013-01-15 17:59:00,27.6,17.0,30.28,WSW,239,0.0,0.0,64,0.00,CLR,,0.01,WeatherDisplay:10.37,2013-01-15 23:59:00,
2013-01-15 18:04:00,27.6,17.0,30.28,WSW,239,0.0,0.0,64,0.00,CLR,,0.01,WeatherDisplay:10.37,2013-01-16 00:04:00,
2013-01-15 18:09:00,27.2,16.6,30.28,WSW,239,0.0,0.0,64,0.00,CLR,,0.01,WeatherDisplay:10.37,2013-01-16 00:09:00,
2013-01-15 18:14:00,26.7,16.5,30.28,WSW,239,0.0,0.0,65,0.00,CLR,,0.01,WeatherDisplay:10.37,2013-01-16 00:14:00,
2013-01-15 18:19:00,26.6,16.4,30.26,WSW,239,0.0,0.0,65,0.00,CLR,,0.01,WeatherDisplay:10.37,2013-01-16 00:19:00,
2013-01-15 18:24:00,26.3,16.1,30.26,WSW,239,0.0,0.0,65,0.00,CLR,,0.01,WeatherDisplay:10.37,2013-01-16 00:24:00,
2013-01-15 18:29:00,26.1,16.3,30.26,WSW,239,0.0,0.0,66,0.00,CLR,,0.01,WeatherDisplay:10.37,2013-01-16 00:29:00,
2013-01-15 18:34:00,25.8,16.0,30.25,WSW,239,0.0,0.0,66,0.00,CLR,,0.01,WeatherDisplay:10.37,2013-01-16 00:34:00,
2013-01-15 18:39:00,25.7,15.9,30.25,WSW,239,0.0,0.0,66,0.00,CLR,,0.01,WeatherDisplay:10.37,2013-01-16 00:39:00,
2013-01-15 18:44:00,25.4,16.0,30.25,WSW,239,0.0,0.0,67,0.00,CLR,,0.01,WeatherDisplay:10.37,2013-01-16 00:44:00,
2013-01-15 18:49:00,25.0,15.6,30.25,WSW,239,0.0,0.0,67,0.00,CLR,,0.01,WeatherDisplay:10.37,2013-01-16 00:49:00,
2013-01-15 18:54:00,24.7,15.3,30.25,WSW,239,0.0,0.0,67,0.00,CLR,,0.01,WeatherDisplay:10.37,2013-01-16 00:54:00,
2013-01-15 18:59:00,24.2,15.2,30.25,WSW,238,0.0,0.0,68,0.00,CLR,,0.01,WeatherDisplay:10.37,2013-01-16 00:59:00,
2013-01-15 19:04:00,24.1,15.4,30.24,WSW,239,0.0,0.0,69,0.00,CLR,,0.01,WeatherDisplay:10.37,2013-01-16 01:04:00,
2013-01-15 19:09:00,23.9,15.5,30.24,WSW,239,0.0,0.0,70,0.00,CLR,,0.01,WeatherDisplay:10.37,2013-01-16 01:09:00,
2013-01-15 19:14:00,23.8,15.4,30.24,WSW,238,0.0,0.0,70,0.00,CLR,,0.01,WeatherDisplay:10.37,2013-01-16 01:14:00,
2013-01-15 19:19:00,23.6,15.6,30.23,WSW,239,0.0,0.0,71,0.00,CLR,,0.01,WeatherDisplay:10.37,2013-01-16 01:19:00,
2013-01-15 19:24:00,23.5,15.5,30.23,WSW,239,0.0,0.0,71,0.00,CLR,,0.01,WeatherDisplay:10.37,2013-01-16 01:24:00,
2013-01-15 19:29:00,23.5,15.8,30.23,WSW,238,0.0,0.0,72,0.00,CLR,,0.01,WeatherDisplay:10.37,2013-01-16 01:29:00,
2013-01-15 19:34:00,23.3,15.6,30.22,WSW,239,0.0,0.0,72,0.00,CLR,,0.01,WeatherDisplay:10.37,2013-01-16 01:34:00,
2013-01-15 19:39:00,23.5,16.1,30.22,WSW,239,0.0,0.0,73,0.00,CLR,,0.01,WeatherDisplay:10.37,2013-01-16 01:39:00,
2013-01-15 19:44:00,24.1,17.3,30.22,WSW,239,0.0,0.0,75,0.00,CLR,,0.01,WeatherDisplay:10.37,2013-01-16 01:44:00,
2013-01-15 19:49:00,24.2,17.7,30.22,WSW,238,0.0,0.0,76,0.00,CLR,,0.01,WeatherDisplay:10.37,2013-01-16 01:49:00,
2013-01-15 19:54:00,24.4,18.2,30.22,WSW,238,0.0,0.0,77,0.00,CLR,,0.01,WeatherDisplay:10.37,2013-01-16 01:54:00,
2013-01-15 19:59:00,24.2,18.3,30.22,WSW,238,0.0,0.0,78,0.00,CLR,,0.01,WeatherDisplay:10.37,2013-01-16 01:59:00,
2013-01-15 20:04:00,24.1,18.5,30.22,WSW,238,0.0,0.0,79,0.00,CLR,,0.01,WeatherDisplay:10.37,2013-01-16 02:04:00,
2013-01-15 20:09:00,23.9,18.3,30.22,WSW,238,0.0,0.0,79,0.00,CLR,,0.01,WeatherDisplay:10.37,2013-01-16 02:09:00,
2013-01-15 20:14:00,23.9,18.3,30.22,WSW,238,0.0,0.0,79,0.00,CLR,,0.01,WeatherDisplay:10.37,2013-01-16 02:14:00,
2013-01-15 20:19:00,23.9,18.6,30.20,WSW,238,0.0,0.0,80,0.00,CLR,,0.01,WeatherDisplay:10.37,2013-01-16 02:19:00,
2013-01-15 20:24:00,23.6,18.3,30.20,WSW,238,0.0,0.0,80,0.00,CLR,,0.01,WeatherDisplay:10.37,2013-01-16 02:24:00,
2013-01-15 20:29:00,23.3,18.0,30.20,WSW,239,0.0,0.0,80,0.00,CLR,,0.01,WeatherDisplay:10.37,2013-01-16 02:29:00,
2013-01-15 20:34:00,23.0,17.7,30.20,WSW,239,0.0,0.0,80,0.00,CLR,,0.01,WeatherDisplay:10.37,2013-01-16 02:34:00,
2013-01-15 20:39:00,23.0,18.0,30.20,WSW,239,0.0,0.0,81,0.00,CLR,,0.01,WeatherDisplay:10.37,2013-01-16 02:39:00,
2013-01-15 20:44:00,23.2,18.2,30.20,WSW,239,0.0,0.0,81,0.00,CLR,,0.01,WeatherDisplay:10.37,2013-01-16 02:44:00,
2013-01-15 20:49:00,22.9,17.9,30.19,WSW,239,0.0,0.0,81,0.00,CLR,,0.01,WeatherDisplay:10.37,2013-01-16 02:49:00,
2013-01-15 20:54:00,22.5,17.5,30.19,WSW,239,0.0,0.0,81,0.00,CLR,,0.01,WeatherDisplay:10.37,2013-01-16 02:54:00,
2013-01-15 20:59:00,22.2,17.3,30.19,WSW,239,0.0,0.0,81,0.00,CLR,,0.01,WeatherDisplay:10.37,2013-01-16 02:59:00,
2013-01-15 21:04:00,22.1,17.4,30.19,WSW,239,0.0,0.0,82,0.00,CLR,,0.01,WeatherDisplay:10.37,2013-01-16 03:04:00,
2013-01-15 21:09:00,22.1,17.4,30.19,WSW,239,0.0,0.0,82,0.00,CLR,,0.01,WeatherDisplay:10.37,2013-01-16 03:09:00,
2013-01-15 21:14:00,21.9,17.2,30.19,WSW,239,0.0,0.0,82,0.00,CLR,,0.01,WeatherDisplay:10.37,2013-01-16 03:14:00,
2013-01-15 21:19:00,22.1,17.4,30.18,WSW,239,0.0,0.0,82,0.00,CLR,,0.01,WeatherDisplay:10.37,2013-01-16 03:19:00,
2013-01-15 21:24:00,22.1,17.4,30.18,WSW,239,0.0,0.0,82,0.00,CLR,,0.01,WeatherDisplay:10.37,2013-01-16 03:24:00,
2013-01-15 21:29:00,22.2,17.8,30.18,WSW,239,0.0,0.0,83,0.00,CLR,,0.01,WeatherDisplay:10.37,2013-01-16 03:29:00,
2013-01-15 21:34:00,22.2,17.8,30.17,WSW,239,0.0,0.0,83,0.00,CLR,,0.01,WeatherDisplay:10.37,2013-01-16 03:34:00,
2013-01-15 21:39:00,22.4,18.3,30.17,WSW,239,0.0,0.0,84,0.00,CLR,,0.01,WeatherDisplay:10.37,2013-01-16 03:39:00,
2013-01-15 21:44:00,22.1,18.0,30.17,WSW,239,0.0,0.0,84,0.00,CLR,,0.01,WeatherDisplay:10.37,2013-01-16 03:44:00,
2013-01-15 21:49:00,21.6,17.5,30.17,WSW,239,0.0,0.0,84,0.00,CLR,,0.01,WeatherDisplay:10.37,2013-01-16 03:49:00,
2013-01-15 21:54:00,21.3,17.2,30.17,WSW,239,0.0,0.0,84,0.00,CLR,,0.01,WeatherDisplay:10.37,2013-01-16 03:54:00,
2013-01-15 21:59:00,21.1,17.0,30.17,WSW,239,0.0,0.0,84,0.00,CLR,,0.01,WeatherDisplay:10.37,2013-01-16 03:59:00,
2013-01-15 22:04:00,20.8,17.0,30.17,WSW,239,0.0,0.0,85,0.00,CLR,,0.01,WeatherDisplay:10.37,2013-01-16 04:04:00,
2013-01-15 22:09:00,21.1,17.3,30.17,WSW,239,0.0,0.0,85,0.00,CLR,,0.01,WeatherDisplay:10.37,2013-01-16 04:09:00,
2013-01-15 22:14:00,21.4,17.9,30.17,WSW,239,0.0,0.0,86,0.00,CLR,,0.01,WeatherDisplay:10.37,2013-01-16 04:14:00,
2013-01-15 22:19:00,21.4,17.9,30.16,WSW,239,0.0,0.0,86,0.00,CLR,,0.01,WeatherDisplay:10.37,2013-01-16 04:19:00,
2013-01-15 22:24:00,21.1,17.3,30.16,WSW,239,0.0,0.0,85,0.00,CLR,,0.01,WeatherDisplay:10.37,2013-01-16 04:24:00,
2013-01-15 22:29:00,20.8,17.3,30.16,WSW,239,0.0,0.0,86,0.00,CLR,,0.01,WeatherDisplay:10.37,2013-01-16 04:29:00,
2013-01-15 22:34:00,20.6,17.1,30.15,WSW,239,0.0,0.0,86,0.00,CLR,,0.01,WeatherDisplay:10.37,2013-01-16 04:34:00,
2013-01-15 22:39:00,20.6,17.1,30.15,WSW,239,0.0,0.0,86,0.00,CLR,,0.01,WeatherDisplay:10.37,2013-01-16 04:39:00,
2013-01-15 22:44:00,21.0,17.5,30.15,WSW,239,0.0,0.0,86,0.00,CLR,,0.01,WeatherDisplay:10.37,2013-01-16 04:44:00,
2013-01-15 22:49:00,21.3,18.0,30.15,WSW,239,0.0,0.0,87,0.00,CLR,,0.01,WeatherDisplay:10.37,2013-01-16 04:49:00,
2013-01-15 22:54:00,21.1,17.8,30.15,WSW,239,0.0,0.0,87,0.00,CLR,,0.01,WeatherDisplay:10.37,2013-01-16 04:54:00,
2013-01-15 22:59:00,20.8,17.3,30.15,WSW,239,0.0,0.0,86,0.00,CLR,,0.01,WeatherDisplay:10.37,2013-01-16 04:59:00,
2013-01-15 23:00:00,20.6,17.1,30.15,WSW,239,0.0,0.0,86,0.00,CLR,,0.01,WeatherDisplay:10.37,2013-01-16 05:00:00,
2013-01-15 23:05:00,20.2,16.7,30.13,WSW,239,0.0,0.0,86,0.00,CLR,,0.01,WeatherDisplay:10.37,2013-01-16 05:05:00,
2013-01-15 23:10:00,20.3,17.0,30.13,WSW,239,0.0,0.0,87,0.00,CLR,,0.01,WeatherDisplay:10.37,2013-01-16 05:10:00,
2013-01-15 23:15:00,20.0,16.8,30.13,WSW,239,0.0,0.0,87,0.00,CLR,,0.01,WeatherDisplay:10.37,2013-01-16 05:15:00,
2013-01-15 23:20:00,19.9,16.7,30.13,WSW,239,0.0,0.0,87,0.00,CLR,,0.01,WeatherDisplay:10.37,2013-01-16 05:20:00,
2013-01-15 23:25:00,19.7,16.5,30.13,WSW,239,0.0,0.0,87,0.00,CLR,,0.01,WeatherDisplay:10.37,2013-01-16 05:25:00,
2013-01-15 23:30:00,19.7,16.5,30.13,WSW,239,0.0,0.0,87,0.00,CLR,,0.01,WeatherDisplay:10.37,2013-01-16 05:30:00,
2013-01-15 23:35:00,19.5,16.3,30.13,WSW,239,0.0,0.0,87,0.00,CLR,,0.01,WeatherDisplay:10.37,2013-01-16 05:35:00,
2013-01-15 23:40:00,19.2,16.0,30.13,WSW,239,0.0,0.0,87,0.00,CLR,,0.01,WeatherDisplay:10.37,2013-01-16 05:40:00,
2013-01-15 23:45:00,19.1,15.9,30.13,WSW,239,0.0,0.0,87,0.00,CLR,,0.01,WeatherDisplay:10.37,2013-01-16 05:45:00,
2013-01-15 23:50:00,19.2,16.2,30.12,WSW,239,0.0,0.0,88,0.00,CLR,,0.01,WeatherDisplay:10.37,2013-01-16 05:50:00,
2013-01-15 23:55:00,19.5,16.5,30.12,WSW,239,0.0,0.0,88,0.00,CLR,,0.01,WeatherDisplay:10.37,2013-01-16 05:55:00,